Terminal Aerodrome Forecast
Issued by NWS

Home | Current Version | Previous Version | Text Only | Print | Product List | Glossary On
Versions: 1 2 3 4 5 6 7 8 9 10 11 12 13 14 15 16 17 18 19 20
000
FTUS46 KHNX 190738 AAA
TAFVIS
TAF AMD
KVIS 190738Z 1908/2006 28006KT P6SM OVC060
     FM191400 14010G20KT 3SM -SHRA BR SCT015 OVC030
     FM192000 16008KT 4SM -SHRA BKN025 OVC045 PROB30 1920/1924 -TSRA
      BKN040CB
     FM200000 13004KT 6SM BR OVC050 PROB30 2000/2001 P6SM -SHRA
      OVC050
     FM200500 14002KT 4SM BR OVC050=

USA.gov is the U.S. government's official web portal to all federal, state and local government web resources and services.